< < Back
Terminal Aerodrome Forecast


Current Version              Previous Versions:   1  2  3  4  5  6  7  8  9  

Terminal Aerodrome Forecast

349
FTUS44 KBMX 302342 RRA
TAFTCL
TAF
KTCL 302342Z 3100/3124 00000KT P6SM SKC
     FM310900 15002KT P6SM BKN040
     FM311200 23005KT P6SM BKN010
     FM311500 22006KT P6SM VCTS BKN025CB=

Latest METAR

822
SAUS70 KWBC 310300 RRF
MTRTCL
METAR KTCL 310253Z AUTO 00000KT 10SM CLR 15/11 A3012 RMK AO2 SLP197
T01500106 51009


USA.gov is the U.S. government's official web portal to all federal, state and local government web resources and services.